createdAt,value
2023-08-15T00:01:29.924Z,7.28
2023-08-15T00:03:57.079Z,7.65
2023-08-15T00:06:24.214Z,6.72
2023-08-15T00:08:51.662Z,9.88
2023-08-15T00:11:18.516Z,6.28
2023-08-15T00:13:45.459Z,6.22
2023-08-15T00:16:12.392Z,7.82
2023-08-15T00:18:39.298Z,5.78
2023-08-15T00:21:06.156Z,6.20
2023-08-15T00:23:33.016Z,5.57
2023-08-15T00:25:59.925Z,8.63
2023-08-15T00:28:27.136Z,5.65
2023-08-15T00:30:54.094Z,7.03
2023-08-15T00:33:20.925Z,6.05
2023-08-15T00:35:47.805Z,5.97
2023-08-15T00:38:14.935Z,5.47
2023-08-15T00:40:41.760Z,6.88
2023-08-15T00:43:08.573Z,5.63
2023-08-15T00:45:35.423Z,5.10
2023-08-15T00:48:02.582Z,6.75
2023-08-15T00:50:29.499Z,7.05
2023-08-15T00:52:56.321Z,7.18
2023-08-15T00:55:23.420Z,7.30
2023-08-15T00:57:50.284Z,7.75
2023-08-15T01:00:17.461Z,9.23
2023-08-15T01:02:44.553Z,6.85
2023-08-15T01:05:11.852Z,5.95
2023-08-15T01:07:38.743Z,6.28
2023-08-15T01:10:05.594Z,8.65
2023-08-15T01:12:32.457Z,6.75
2023-08-15T01:14:59.315Z,7.50
2023-08-15T01:17:26.161Z,6.65
2023-08-15T01:19:53.056Z,6.60
2023-08-15T01:22:19.902Z,6.45
2023-08-15T01:24:46.982Z,5.93
2023-08-15T01:27:13.861Z,4.97
2023-08-15T01:29:41.014Z,4.88
2023-08-15T01:32:08.646Z,4.72
2023-08-15T01:34:35.544Z,4.78
2023-08-15T01:37:02.434Z,5.13
2023-08-15T01:39:29.292Z,5.72
2023-08-15T01:41:56.188Z,5.20
2023-08-15T01:44:23.021Z,4.40
2023-08-15T01:46:49.882Z,5.10
2023-08-15T01:49:16.809Z,5.53
2023-08-15T01:51:43.868Z,4.78
2023-08-15T01:54:10.709Z,4.90
2023-08-15T01:56:37.590Z,5.18
2023-08-15T01:59:04.453Z,4.05
2023-08-15T02:01:31.624Z,5.80
2023-08-15T02:03:58.573Z,4.45
2023-08-15T02:06:25.651Z,5.25
2023-08-15T02:08:52.616Z,4.80
2023-08-15T02:11:19.535Z,5.03
2023-08-15T02:13:46.378Z,6.05
2023-08-15T02:16:13.313Z,5.07
2023-08-15T02:18:42.332Z,6.20
2023-08-15T02:21:09.498Z,4.97
2023-08-15T02:23:36.338Z,4.70
2023-08-15T02:26:03.142Z,5.20
2023-08-15T02:28:30.014Z,5.10
2023-08-15T02:30:56.884Z,4.88
2023-08-15T02:33:23.717Z,5.50
2023-08-15T02:35:50.566Z,8.52
2023-08-15T02:38:17.460Z,6.10
2023-08-15T02:40:44.352Z,5.35
2023-08-15T02:43:11.134Z,5.57
2023-08-15T02:45:38.256Z,5.25
2023-08-15T02:48:05.364Z,5.70
2023-08-15T02:50:32.271Z,5.60
2023-08-15T02:52:59.079Z,5.43
2023-08-15T02:57:03.861Z,5.07
2023-08-15T02:59:30.828Z,5.28
2023-08-15T03:01:57.839Z,4.25
2023-08-15T03:04:24.933Z,5.38
2023-08-15T03:06:51.931Z,5.47
2023-08-15T03:09:18.928Z,4.82
2023-08-15T03:11:46.151Z,4.60
2023-08-15T03:14:13.103Z,5.00
2023-08-15T03:16:40.366Z,6.57
2023-08-15T03:19:07.365Z,5.65
2023-08-15T03:21:34.355Z,5.28
2023-08-15T03:24:01.302Z,5.65
2023-08-15T03:26:28.569Z,7.22
2023-08-15T03:28:55.888Z,8.48
2023-08-15T03:31:22.889Z,8.27
2023-08-15T03:33:50.061Z,6.18
2023-08-15T03:36:17.333Z,8.05
2023-08-15T03:38:44.434Z,12.68
2023-08-15T03:41:11.429Z,9.68
2023-08-15T03:43:38.711Z,9.77
2023-08-15T03:46:06.750Z,10.75
2023-08-15T03:48:34.202Z,9.25
2023-08-15T03:51:01.712Z,9.90
2023-08-15T03:53:29.220Z,9.13
2023-08-15T03:55:56.956Z,7.50
2023-08-15T03:58:24.766Z,9.73
2023-08-15T04:00:52.232Z,9.03
2023-08-15T04:03:19.630Z,7.90
2023-08-15T04:05:48.184Z,7.43
2023-08-15T04:08:16.403Z,8.10
2023-08-15T04:10:47.590Z,8.20
2023-08-15T04:13:16.172Z,6.82
2023-08-15T04:15:43.286Z,10.95
2023-08-15T04:18:11.026Z,6.20
2023-08-15T04:20:42.595Z,9.07
2023-08-15T04:23:13.544Z,6.13
2023-08-15T04:25:40.648Z,6.32
2023-08-15T04:28:08.039Z,8.52
2023-08-15T04:30:35.329Z,9.18
2023-08-15T04:33:02.544Z,7.75
2023-08-15T04:35:30.203Z,7.47
2023-08-15T04:37:57.348Z,8.90
2023-08-15T04:40:38.298Z,7.05
2023-08-15T04:43:05.642Z,8.52
2023-08-15T04:45:32.661Z,7.13
2023-08-15T04:47:59.783Z,6.90
2023-08-15T04:50:26.905Z,6.30
2023-08-15T04:52:53.986Z,6.00
2023-08-15T04:55:21.059Z,6.25
2023-08-15T04:57:48.320Z,6.25
2023-08-15T05:00:15.773Z,6.70
2023-08-15T05:02:42.824Z,6.43
2023-08-15T05:05:10.136Z,5.82
2023-08-15T05:07:37.852Z,9.13
2023-08-15T05:10:05.509Z,6.80
2023-08-15T05:12:32.865Z,6.70
2023-08-15T05:15:00.173Z,6.07
2023-08-15T05:17:29.747Z,6.05
2023-08-15T05:19:58.652Z,5.32
2023-08-15T05:22:25.734Z,5.88
2023-08-15T05:24:52.851Z,5.55
2023-08-15T05:27:20.276Z,6.22
2023-08-15T05:30:07.047Z,5.68
2023-08-15T05:32:54.423Z,5.18
2023-08-15T05:35:41.977Z,5.72
2023-08-15T05:38:29.498Z,6.53
2023-08-15T05:41:16.801Z,6.90
2023-08-15T05:44:04.186Z,6.50
2023-08-15T05:46:51.539Z,7.47
2023-08-15T05:49:39.245Z,9.43
2023-08-15T05:52:27.567Z,6.18
2023-08-15T05:55:14.920Z,8.55
2023-08-15T05:58:02.232Z,6.80
2023-08-15T06:00:49.601Z,6.10
2023-08-15T06:06:28.667Z,6.07
2023-08-15T06:09:18.525Z,7.22
2023-08-15T06:12:06.993Z,8.07
2023-08-15T06:14:54.356Z,7.63
2023-08-15T06:17:41.794Z,5.47
2023-08-15T06:20:29.168Z,6.05
2023-08-15T06:23:16.737Z,8.65
2023-08-15T06:26:04.742Z,7.45
2023-08-15T06:28:52.331Z,8.10
2023-08-15T06:31:39.676Z,10.00
2023-08-15T06:34:27.201Z,13.00
2023-08-15T06:37:14.527Z,11.77
2023-08-15T06:40:02.013Z,13.55
2023-08-15T06:42:49.328Z,13.80
2023-08-15T06:45:39.676Z,13.05
2023-08-15T06:48:27.247Z,13.57
2023-08-15T06:51:15.108Z,12.95
2023-08-15T06:54:02.445Z,14.00
2023-08-15T06:56:49.946Z,13.13
2023-08-15T06:59:37.376Z,14.48
2023-08-15T07:02:24.750Z,14.35
2023-08-15T07:05:12.062Z,12.30
2023-08-15T07:07:59.361Z,10.23
2023-08-15T07:10:46.997Z,10.15
2023-08-15T07:13:34.540Z,9.60
2023-08-15T07:16:21.960Z,10.77
2023-08-15T07:19:09.366Z,10.13
2023-08-15T07:21:56.665Z,8.55
2023-08-15T07:24:44.940Z,7.32
2023-08-15T07:27:32.275Z,7.10
2023-08-15T07:30:19.995Z,6.25
2023-08-15T07:33:07.353Z,6.63
2023-08-15T07:35:54.729Z,6.53
2023-08-15T07:38:42.263Z,4.45
2023-08-15T07:41:29.796Z,4.30
2023-08-15T07:44:17.118Z,5.40
2023-08-15T07:47:04.553Z,5.88
2023-08-15T07:50:22.687Z,3.63
2023-08-15T07:53:10.027Z,4.18
2023-08-15T07:55:57.594Z,4.93
2023-08-15T07:58:45.117Z,3.80
2023-08-15T08:01:32.451Z,5.10
2023-08-15T08:04:20.017Z,3.58
2023-08-15T08:07:07.650Z,3.38
2023-08-15T08:09:55.079Z,4.93
2023-08-15T08:12:42.656Z,3.17
2023-08-15T08:15:30.204Z,4.30
2023-08-15T08:18:17.553Z,3.97
2023-08-15T08:21:04.898Z,3.22
2023-08-15T08:23:52.249Z,4.75
2023-08-15T08:26:39.583Z,5.07
2023-08-15T08:29:26.925Z,5.13
2023-08-15T08:32:14.227Z,3.42
2023-08-15T08:35:01.614Z,4.97
2023-08-15T08:37:48.972Z,6.32
2023-08-15T08:40:36.402Z,4.32
2023-08-15T08:43:24.000Z,3.10
2023-08-15T08:46:12.218Z,5.25
2023-08-15T08:49:00.139Z,3.67
2023-08-15T08:51:47.865Z,2.90
2023-08-15T08:54:53.769Z,3.83
2023-08-15T08:57:49.145Z,3.10
2023-08-15T09:00:38.005Z,2.90
2023-08-15T09:03:26.011Z,3.40
2023-08-15T09:06:13.609Z,4.63
2023-08-15T09:09:01.341Z,3.08
2023-08-15T09:11:48.677Z,3.03
2023-08-15T09:14:42.031Z,3.22
2023-08-15T09:17:29.741Z,4.00
2023-08-15T09:20:18.367Z,2.90
2023-08-15T09:23:07.209Z,3.30
2023-08-15T09:25:54.845Z,2.83
2023-08-15T09:28:43.416Z,2.60
2023-08-15T09:31:30.884Z,3.45
2023-08-15T09:34:19.481Z,2.90
2023-08-15T09:37:08.758Z,2.50
2023-08-15T09:39:57.621Z,5.53
2023-08-15T09:42:45.455Z,3.25
2023-08-15T09:45:33.122Z,2.55
2023-08-15T09:48:20.931Z,2.13
2023-08-15T09:51:11.373Z,2.28
2023-08-15T09:54:02.635Z,3.65
2023-08-15T09:56:50.158Z,2.00
2023-08-15T09:59:37.576Z,3.00
2023-08-15T10:02:27.866Z,2.78
2023-08-15T10:05:20.338Z,2.50
2023-08-15T10:08:08.709Z,2.25
2023-08-15T10:10:59.764Z,2.40
2023-08-15T10:13:48.708Z,2.50
2023-08-15T10:16:36.409Z,2.20
2023-08-15T10:19:30.693Z,3.38
2023-08-15T10:22:19.762Z,2.60
2023-08-15T10:25:28.840Z,2.50
2023-08-15T10:28:16.266Z,2.38
2023-08-15T10:31:03.930Z,2.85
2023-08-15T10:33:51.341Z,2.55
2023-08-15T10:36:41.878Z,2.50
2023-08-15T10:39:29.250Z,2.40
2023-08-15T10:42:16.862Z,2.60
2023-08-15T10:45:14.651Z,2.70
2023-08-15T10:48:03.180Z,3.67
2023-08-15T10:50:52.351Z,4.38
2023-08-15T10:53:41.479Z,2.90
2023-08-15T10:56:33.279Z,2.55
2023-08-15T10:59:20.611Z,2.67
2023-08-15T11:02:08.015Z,3.28
2023-08-15T11:04:55.593Z,2.60
2023-08-15T11:07:42.978Z,2.50
2023-08-15T11:10:30.710Z,5.68
2023-08-15T11:13:18.599Z,2.67
2023-08-15T11:16:06.682Z,2.60
2023-08-15T11:18:56.978Z,2.85
2023-08-15T11:21:44.765Z,2.67
2023-08-15T11:24:32.080Z,3.55
2023-08-15T11:27:19.582Z,3.10
2023-08-15T11:30:07.980Z,2.83
2023-08-15T11:32:55.426Z,2.60
2023-08-15T11:35:42.856Z,3.17
2023-08-15T11:38:31.335Z,3.28
2023-08-15T11:41:19.523Z,2.42
2023-08-15T11:44:07.040Z,3.10
2023-08-15T11:46:55.853Z,2.63
2023-08-15T11:49:47.045Z,2.13
2023-08-15T11:52:42.339Z,2.00
2023-08-15T11:55:34.041Z,3.65
2023-08-15T11:58:32.511Z,2.00
2023-08-15T12:01:20.099Z,2.08
2023-08-15T12:04:07.940Z,2.30
2023-08-15T12:06:57.017Z,2.30
2023-08-15T12:09:44.347Z,3.00
2023-08-15T12:12:37.495Z,2.17
2023-08-15T12:15:25.047Z,1.98
2023-08-15T12:18:12.406Z,2.58
2023-08-15T12:21:01.452Z,1.92
2023-08-15T12:23:49.014Z,1.90
2023-08-15T12:26:36.569Z,1.75
2023-08-15T12:30:10.774Z,2.00
2023-08-15T12:32:31.801Z,1.80
2023-08-15T12:35:19.384Z,1.90
2023-08-15T12:38:06.792Z,1.80
2023-08-15T12:40:54.272Z,2.00
2023-08-15T12:43:41.646Z,4.07
2023-08-15T12:46:29.217Z,2.88
2023-08-15T12:49:16.544Z,1.70
2023-08-15T12:52:05.471Z,1.80
2023-08-15T12:54:52.786Z,2.08
2023-08-15T12:57:40.081Z,1.88
2023-08-15T13:00:27.650Z,2.00
2023-08-15T13:03:15.159Z,1.85
2023-08-15T13:06:02.689Z,2.03
2023-08-15T13:08:50.238Z,2.05
2023-08-15T13:11:38.001Z,2.20
2023-08-15T13:14:33.327Z,1.95
2023-08-15T13:17:21.537Z,2.35
2023-08-15T13:20:09.741Z,2.17
2023-08-15T13:22:57.216Z,2.20
2023-08-15T13:25:45.513Z,5.38
2023-08-15T13:28:33.033Z,2.38
2023-08-15T13:31:20.659Z,2.50
2023-08-15T13:34:08.068Z,5.63
2023-08-15T13:36:55.785Z,2.70
2023-08-15T13:39:43.268Z,2.78
2023-08-15T13:45:20.994Z,3.05
2023-08-15T13:48:08.375Z,2.70
2023-08-15T13:50:55.738Z,3.00
2023-08-15T13:53:50.002Z,3.00
2023-08-15T13:56:37.569Z,2.75
2023-08-15T13:59:24.856Z,3.83
2023-08-15T14:02:12.229Z,2.75
2023-08-15T14:04:59.572Z,2.92
2023-08-15T14:07:47.124Z,3.72
2023-08-15T14:10:37.535Z,5.15
2023-08-15T14:13:27.095Z,3.10
2023-08-15T14:16:14.382Z,3.45
2023-08-15T14:19:01.721Z,5.65
2023-08-15T14:21:49.021Z,3.78
2023-08-15T14:24:36.377Z,3.33
2023-08-15T14:27:23.704Z,4.28
2023-08-15T14:30:12.141Z,3.50
2023-08-15T14:33:00.134Z,4.25
2023-08-15T14:35:47.480Z,4.13
2023-08-15T14:38:34.766Z,3.50
2023-08-15T14:41:22.092Z,3.70
2023-08-15T14:44:09.780Z,4.90
2023-08-15T14:46:57.469Z,5.97
2023-08-15T14:49:44.842Z,3.55
2023-08-15T14:52:35.053Z,4.80
2023-08-15T14:55:22.665Z,4.00
2023-08-15T14:58:10.366Z,3.95
2023-08-15T15:00:57.696Z,3.50
2023-08-15T15:03:45.337Z,3.80
2023-08-15T15:06:32.947Z,3.88
2023-08-15T15:09:20.284Z,5.97
2023-08-15T15:12:08.326Z,4.28
2023-08-15T15:14:55.698Z,6.47
2023-08-15T15:17:43.557Z,5.20
2023-08-15T15:20:30.956Z,4.85
2023-08-15T15:23:18.883Z,7.03
2023-08-15T15:26:06.598Z,3.55
2023-08-15T15:28:54.019Z,4.82
2023-08-15T15:31:41.410Z,3.53
2023-08-15T15:34:29.128Z,3.10
2023-08-15T15:37:16.452Z,3.10
2023-08-15T15:40:04.093Z,3.20
2023-08-15T15:42:51.671Z,2.65
2023-08-15T15:45:39.204Z,2.95
2023-08-15T15:48:26.878Z,3.72
2023-08-15T15:51:14.360Z,4.95
2023-08-15T15:54:01.747Z,2.90
2023-08-15T15:56:49.173Z,2.85
2023-08-15T15:59:36.466Z,3.28
2023-08-15T16:02:24.107Z,2.58
2023-08-15T16:05:12.067Z,2.83
2023-08-15T16:07:59.525Z,2.45
2023-08-15T16:10:47.194Z,2.50
2023-08-15T16:13:34.737Z,2.67
2023-08-15T16:16:22.716Z,2.72
2023-08-15T16:19:10.714Z,2.60
2023-08-15T16:21:58.163Z,2.70
2023-08-15T16:24:45.427Z,3.10
2023-08-15T16:27:33.139Z,3.30
2023-08-15T16:30:20.575Z,2.90
2023-08-15T16:33:07.936Z,3.05
2023-08-15T16:35:55.233Z,3.00
2023-08-15T16:38:42.553Z,3.42
2023-08-15T16:41:29.887Z,3.90
2023-08-15T16:44:19.431Z,4.03
2023-08-15T16:47:06.777Z,2.90
2023-08-15T16:49:54.151Z,3.15
2023-08-15T16:52:41.671Z,2.83
2023-08-15T16:55:30.071Z,4.85
2023-08-15T16:58:17.535Z,4.68
2023-08-15T17:01:04.921Z,3.58
2023-08-15T17:03:52.416Z,4.85
2023-08-15T17:06:39.849Z,3.17
2023-08-15T17:09:27.884Z,3.33
2023-08-15T17:12:15.397Z,5.05
2023-08-15T17:15:03.099Z,4.65
2023-08-15T17:17:50.787Z,3.35
2023-08-15T17:20:38.158Z,3.50
2023-08-15T17:23:25.454Z,4.60
2023-08-15T17:26:12.749Z,2.42
2023-08-15T17:29:00.322Z,2.80
2023-08-15T17:31:47.622Z,2.75
2023-08-15T17:34:35.798Z,2.60
2023-08-15T17:37:23.153Z,2.50
2023-08-15T17:40:11.130Z,2.95
2023-08-15T17:42:58.446Z,3.30
2023-08-15T17:45:46.619Z,3.75
2023-08-15T17:48:33.971Z,3.80
2023-08-15T17:51:21.273Z,3.67
2023-08-15T17:54:11.853Z,3.20
2023-08-15T17:56:59.363Z,3.60
2023-08-15T17:59:46.726Z,3.53
2023-08-15T18:02:34.356Z,2.67
2023-08-15T18:05:21.982Z,3.80
2023-08-15T18:08:09.286Z,4.18
2023-08-15T18:10:56.600Z,3.25
2023-08-15T18:13:44.155Z,4.25
2023-08-15T18:16:31.518Z,6.32
2023-08-15T18:19:21.278Z,3.70
2023-08-15T18:22:09.089Z,5.32
2023-08-15T18:24:57.435Z,3.80
2023-08-15T18:27:44.755Z,3.83
2023-08-15T18:30:32.057Z,3.22
2023-08-15T18:33:19.387Z,3.50
2023-08-15T18:36:06.863Z,4.40
2023-08-15T18:38:54.203Z,4.47
2023-08-15T18:41:41.702Z,4.63
2023-08-15T18:44:29.246Z,5.53
2023-08-15T18:47:16.691Z,5.70
2023-08-15T18:50:04.748Z,4.53
2023-08-15T18:52:52.075Z,4.28
2023-08-15T18:55:40.252Z,4.57
2023-08-15T18:58:27.823Z,4.63
2023-08-15T19:01:15.154Z,4.10
2023-08-15T19:04:02.544Z,4.75
2023-08-15T19:06:49.943Z,4.07
2023-08-15T19:09:37.244Z,3.78
2023-08-15T19:12:25.623Z,4.35
2023-08-15T19:15:22.769Z,3.95
2023-08-15T19:18:10.138Z,3.90
2023-08-15T19:20:58.577Z,3.80
2023-08-15T19:23:45.886Z,5.25
2023-08-15T19:26:33.617Z,5.10
2023-08-15T19:29:21.211Z,3.80
2023-08-15T19:32:08.522Z,4.47
2023-08-15T19:34:55.795Z,4.35
2023-08-15T19:37:43.347Z,4.82
2023-08-15T19:40:30.664Z,4.10
2023-08-15T19:43:18.271Z,4.35
2023-08-15T19:46:05.645Z,5.53
2023-08-15T19:48:52.989Z,6.10
2023-08-15T19:51:40.590Z,5.03
2023-08-15T19:54:28.144Z,4.93
2023-08-15T19:57:15.527Z,6.50
2023-08-15T20:00:02.962Z,7.20
2023-08-15T20:02:50.283Z,5.40
2023-08-15T20:05:37.624Z,6.97
2023-08-15T20:08:25.444Z,6.88
2023-08-15T20:11:12.812Z,6.30
2023-08-15T20:14:00.382Z,5.40
2023-08-15T20:16:47.787Z,4.22
2023-08-15T20:19:35.342Z,4.32
2023-08-15T20:22:23.488Z,7.63
2023-08-15T20:25:11.119Z,5.57
2023-08-15T20:27:58.568Z,3.97
2023-08-15T20:30:46.049Z,4.28
2023-08-15T20:33:33.636Z,4.40
2023-08-15T20:36:20.975Z,5.30
2023-08-15T20:39:08.256Z,7.18
2023-08-15T20:41:55.600Z,4.80
2023-08-15T20:44:43.232Z,4.85
2023-08-15T20:47:30.568Z,5.63
2023-08-15T20:50:17.974Z,5.18
2023-08-15T20:53:05.487Z,4.22
2023-08-15T20:55:52.813Z,6.03
2023-08-15T20:58:40.134Z,4.85
2023-08-15T21:01:27.476Z,4.38
2023-08-15T21:04:14.816Z,5.28
2023-08-15T21:07:02.214Z,5.30
2023-08-15T21:09:50.358Z,5.40
2023-08-15T21:12:37.705Z,7.90
2023-08-15T21:15:25.015Z,6.68
2023-08-15T21:18:12.466Z,6.57
2023-08-15T21:20:59.763Z,11.75
2023-08-15T21:23:47.052Z,8.27
2023-08-15T21:26:34.593Z,4.78
2023-08-15T21:29:22.536Z,7.50
2023-08-15T21:32:09.856Z,5.47
2023-08-15T21:34:58.811Z,4.57
2023-08-15T21:37:46.118Z,4.80
2023-08-15T21:40:33.481Z,5.00
2023-08-15T21:43:20.841Z,5.70
2023-08-15T21:46:08.230Z,5.80
2023-08-15T21:48:55.590Z,5.50
2023-08-15T21:51:43.086Z,9.23
2023-08-15T21:54:30.703Z,5.90
2023-08-15T21:57:18.321Z,7.32
2023-08-15T22:00:06.159Z,8.77
2023-08-15T22:02:56.667Z,7.35
2023-08-15T22:05:47.194Z,4.80
2023-08-15T22:08:34.557Z,5.18
2023-08-15T22:11:24.136Z,4.93
2023-08-15T22:14:11.772Z,5.43
2023-08-15T22:16:59.101Z,4.20
2023-08-15T22:19:46.765Z,6.75
2023-08-15T22:22:34.117Z,5.38
2023-08-15T22:25:22.054Z,4.25
2023-08-15T22:28:09.324Z,8.05
2023-08-15T22:30:56.613Z,6.05
2023-08-15T22:33:43.909Z,5.82
2023-08-15T22:36:31.288Z,7.85
2023-08-15T22:39:18.619Z,7.30
2023-08-15T22:42:06.155Z,4.45
2023-08-15T22:44:53.428Z,5.32
2023-08-15T22:47:40.763Z,8.13
2023-08-15T22:50:28.139Z,5.10
2023-08-15T22:53:15.443Z,3.95
2023-08-15T22:56:02.916Z,5.43
2023-08-15T22:58:50.542Z,8.63
2023-08-15T23:01:37.938Z,7.72
2023-08-15T23:04:25.302Z,7.57
2023-08-15T23:07:12.666Z,6.75
2023-08-15T23:10:00.008Z,6.25
2023-08-15T23:12:47.357Z,4.28
2023-08-15T23:15:35.076Z,7.45
2023-08-15T23:18:22.454Z,10.48
2023-08-15T23:21:09.782Z,23.00
2023-08-15T23:23:57.097Z,34.50
2023-08-15T23:26:44.388Z,12.52
2023-08-15T23:29:31.920Z,14.15
2023-08-15T23:32:19.248Z,11.75
2023-08-15T23:35:06.792Z,9.93
2023-08-15T23:37:54.333Z,16.40
2023-08-15T23:40:41.690Z,10.27
2023-08-15T23:43:29.132Z,58.72
2023-08-15T23:46:16.717Z,81.05
2023-08-15T23:49:04.215Z,10.13
2023-08-15T23:51:51.531Z,6.25
2023-08-15T23:54:39.119Z,7.82
2023-08-15T23:57:26.688Z,6.97
